createdAt,value
2022-11-14T00:02:32.093Z,9.50
2022-11-14T00:05:39.498Z,9.50
2022-11-14T00:08:42.416Z,9.50
2022-11-14T00:11:45.493Z,9.50
2022-11-14T00:14:48.637Z,9.60
2022-11-14T00:17:53.234Z,9.60
2022-11-14T00:20:56.419Z,9.60
2022-11-14T00:23:59.318Z,9.60
2022-11-14T00:27:02.212Z,9.50
2022-11-14T00:30:06.026Z,9.50
2022-11-14T00:33:18.756Z,9.60
2022-11-14T00:36:23.109Z,9.60
2022-11-14T00:39:26.102Z,9.70
2022-11-14T00:42:29.036Z,9.60
2022-11-14T00:45:31.920Z,9.60
2022-11-14T00:48:36.303Z,9.60
2022-11-14T00:51:39.188Z,9.70
2022-11-14T00:54:42.069Z,9.60
2022-11-14T00:57:45.258Z,9.60
2022-11-14T01:00:48.396Z,9.60
2022-11-14T01:03:53.272Z,9.70
2022-11-14T01:06:56.175Z,9.70
2022-11-14T01:09:59.231Z,9.70
2022-11-14T01:13:02.107Z,9.70
2022-11-14T01:16:05.438Z,9.60
2022-11-14T01:19:10.086Z,9.60
2022-11-14T01:22:12.963Z,9.60
2022-11-14T01:25:15.958Z,9.60
2022-11-14T01:28:20.633Z,9.50
2022-11-14T01:31:25.582Z,9.40
2022-11-14T01:34:30.389Z,9.40
2022-11-14T01:37:33.305Z,9.40
2022-11-14T01:40:41.930Z,9.40
2022-11-14T01:43:44.937Z,9.40
2022-11-14T01:46:53.049Z,9.30
2022-11-14T01:50:00.445Z,9.30
2022-11-14T01:53:03.629Z,9.30
2022-11-14T01:56:08.417Z,9.20
2022-11-14T01:59:14.681Z,9.00
2022-11-14T02:02:19.718Z,8.90
2022-11-14T02:05:24.540Z,8.80
2022-11-14T02:08:27.887Z,8.90
2022-11-14T02:11:33.828Z,8.90
2022-11-14T02:14:38.593Z,8.80
2022-11-14T02:17:42.572Z,8.70
2022-11-14T02:20:46.916Z,8.70
2022-11-14T02:23:49.794Z,8.70
2022-11-14T02:26:52.672Z,8.70
2022-11-14T02:29:55.590Z,8.70
2022-11-14T02:33:13.721Z,8.60
2022-11-14T02:36:18.060Z,8.50
2022-11-14T02:39:21.047Z,8.50
2022-11-14T02:42:23.943Z,8.50
2022-11-14T02:45:26.944Z,8.50
2022-11-14T02:48:30.132Z,8.40
2022-11-14T02:51:34.696Z,8.40
2022-11-14T02:54:37.607Z,8.40
2022-11-14T02:57:40.502Z,8.60
2022-11-14T03:01:06.025Z,8.60
2022-11-14T03:04:06.668Z,8.50
2022-11-14T03:07:11.206Z,8.50
2022-11-14T03:10:14.617Z,8.50
2022-11-14T03:13:17.513Z,8.40
2022-11-14T03:16:20.804Z,8.50
2022-11-14T03:19:23.710Z,8.40
2022-11-14T03:22:28.277Z,8.40
2022-11-14T03:25:31.209Z,8.40
2022-11-14T03:28:34.443Z,8.40
2022-11-14T03:31:37.384Z,8.40
2022-11-14T03:34:40.284Z,8.50
2022-11-14T03:37:44.561Z,8.40
2022-11-14T03:40:47.440Z,8.40
2022-11-14T03:43:50.356Z,8.40
2022-11-14T03:46:53.504Z,8.30
2022-11-14T03:49:56.372Z,8.30
2022-11-14T03:53:00.617Z,8.40
2022-11-14T03:56:03.550Z,8.40
2022-11-14T03:59:06.476Z,8.50
2022-11-14T04:02:09.382Z,8.50
2022-11-14T04:05:12.365Z,8.50
2022-11-14T04:08:16.639Z,8.40
2022-11-14T04:11:19.798Z,8.40
2022-11-14T04:14:22.704Z,8.40
2022-11-14T04:17:25.647Z,8.40
2022-11-14T04:20:28.545Z,8.30
2022-11-14T04:23:32.801Z,8.30
2022-11-14T04:26:35.726Z,8.30
2022-11-14T04:29:38.603Z,8.30
2022-11-14T04:32:41.485Z,8.20
2022-11-14T04:35:44.387Z,8.30
2022-11-14T04:38:48.654Z,8.30
2022-11-14T04:41:51.548Z,8.30
2022-11-14T04:44:54.495Z,8.30
2022-11-14T04:47:57.452Z,8.40
2022-11-14T04:51:00.375Z,8.50
2022-11-14T04:54:04.861Z,8.50
2022-11-14T04:57:07.762Z,8.50
2022-11-14T05:00:12.276Z,8.30
2022-11-14T05:03:15.204Z,8.40
2022-11-14T05:06:18.145Z,8.40
2022-11-14T05:09:22.397Z,8.40
2022-11-14T05:12:25.290Z,8.40
2022-11-14T05:15:28.201Z,8.30
2022-11-14T05:18:31.347Z,8.30
2022-11-14T05:21:34.511Z,8.30
2022-11-14T05:24:38.818Z,8.30
2022-11-14T05:27:41.722Z,8.30
2022-11-14T05:30:44.647Z,8.40
2022-11-14T05:33:48.142Z,8.40
2022-11-14T05:36:51.081Z,8.40
2022-11-14T05:39:55.316Z,8.40
2022-11-14T05:42:58.240Z,8.40
2022-11-14T05:46:01.882Z,8.40
2022-11-14T05:49:04.937Z,8.40
2022-11-14T05:52:07.840Z,8.40
2022-11-14T05:55:12.229Z,8.40
2022-11-14T05:58:15.166Z,8.40
2022-11-14T06:01:19.962Z,8.40
2022-11-14T06:04:23.260Z,8.50
2022-11-14T06:07:26.213Z,8.50
2022-11-14T06:10:30.804Z,8.50
2022-11-14T06:13:33.989Z,8.50
2022-11-14T06:16:37.044Z,8.50
2022-11-14T06:19:40.144Z,8.40
2022-11-14T06:22:43.028Z,8.50
2022-11-14T06:25:47.280Z,8.40
2022-11-14T06:28:50.809Z,8.50
2022-11-14T06:31:53.691Z,8.50
2022-11-14T06:34:56.695Z,8.50
2022-11-14T06:38:00.901Z,8.60
2022-11-14T06:41:06.116Z,8.60
2022-11-14T06:44:09.720Z,8.70
2022-11-14T06:47:12.588Z,8.70
2022-11-14T06:50:15.676Z,8.80
2022-11-14T06:53:18.557Z,8.70
2022-11-14T06:56:22.787Z,8.70
2022-11-14T06:59:25.704Z,8.70
2022-11-14T07:02:28.568Z,8.70
2022-11-14T07:05:31.949Z,8.80
2022-11-14T07:08:36.154Z,8.70
2022-11-14T07:11:40.537Z,8.80
2022-11-14T07:14:43.469Z,8.70
2022-11-14T07:17:48.464Z,8.70
2022-11-14T07:20:51.394Z,8.80
2022-11-14T07:23:54.562Z,8.80
2022-11-14T07:26:58.823Z,8.80
2022-11-14T07:30:01.714Z,8.70
2022-11-14T07:33:04.729Z,8.80
2022-11-14T07:36:08.320Z,8.80
2022-11-14T07:39:11.216Z,8.80
2022-11-14T07:42:15.445Z,8.80
2022-11-14T07:45:20.001Z,8.90
2022-11-14T07:48:23.606Z,9.00
2022-11-14T07:51:26.488Z,9.00
2022-11-14T07:54:29.439Z,9.00
2022-11-14T07:57:38.936Z,8.90
2022-11-14T08:00:44.352Z,8.90
2022-11-14T08:03:47.317Z,8.90
2022-11-14T08:06:50.332Z,8.90
2022-11-14T08:09:53.460Z,9.00
2022-11-14T08:13:25.212Z,9.00
2022-11-14T08:16:24.361Z,9.00
2022-11-14T08:19:27.293Z,9.00
2022-11-14T08:22:31.146Z,9.10
2022-11-14T08:25:34.697Z,9.10
2022-11-14T08:28:39.073Z,9.00
2022-11-14T08:31:41.956Z,9.10
2022-11-14T08:34:44.963Z,9.20
2022-11-14T08:37:47.881Z,9.30
2022-11-14T08:40:50.830Z,9.30
2022-11-14T08:43:55.174Z,9.20
2022-11-14T08:47:00.261Z,9.30
2022-11-14T08:50:03.314Z,9.20
2022-11-14T08:53:06.216Z,9.20
2022-11-14T08:56:10.663Z,9.20
2022-11-14T08:59:14.947Z,9.20
2022-11-14T09:02:18.396Z,9.30
2022-11-14T09:05:21.465Z,9.40
2022-11-14T09:08:24.816Z,9.40
2022-11-14T09:11:27.699Z,9.40
2022-11-14T09:14:31.968Z,9.40
2022-11-14T09:17:35.287Z,9.50
2022-11-14T09:20:40.277Z,9.60
2022-11-14T09:23:43.494Z,9.50
2022-11-14T09:26:46.385Z,9.50
2022-11-14T09:29:50.646Z,9.30
2022-11-14T09:32:53.577Z,9.40
2022-11-14T09:35:58.363Z,9.40
2022-11-14T09:39:01.267Z,9.50
2022-11-14T09:42:26.833Z,9.50
2022-11-14T09:45:31.801Z,9.40
2022-11-14T09:48:34.783Z,9.40
2022-11-14T09:51:44.677Z,9.50
2022-11-14T09:54:53.184Z,9.60
2022-11-14T09:57:57.229Z,9.70
2022-11-14T10:01:09.594Z,9.80
2022-11-14T10:04:21.997Z,9.90
2022-11-14T10:07:35.184Z,9.90
2022-11-14T10:10:52.299Z,10.00
2022-11-14T10:14:26.989Z,10.10
2022-11-14T10:17:51.712Z,10.30
2022-11-14T10:20:56.666Z,10.50
2022-11-14T10:24:07.957Z,10.60
2022-11-14T10:27:18.585Z,10.70
2022-11-14T10:30:21.804Z,10.90
2022-11-14T10:33:38.017Z,11.00
2022-11-14T10:36:51.142Z,11.10
2022-11-14T10:39:56.490Z,11.00
2022-11-14T10:43:04.865Z,11.10
2022-11-14T10:46:14.389Z,11.30
2022-11-14T10:49:21.732Z,11.40
2022-11-14T10:52:37.292Z,11.40
2022-11-14T10:56:03.053Z,11.60
2022-11-14T10:59:03.158Z,11.60
2022-11-14T11:02:06.242Z,11.70
2022-11-14T11:05:16.780Z,11.70
2022-11-14T11:08:44.323Z,11.40
2022-11-14T11:11:56.335Z,11.40
2022-11-14T11:15:15.934Z,11.50
2022-11-14T11:18:28.276Z,11.40
2022-11-14T11:21:48.642Z,11.40
2022-11-14T11:24:51.638Z,11.30
2022-11-14T11:28:12.155Z,11.40
2022-11-14T11:31:15.081Z,11.40
2022-11-14T11:34:26.704Z,11.50
2022-11-14T11:37:33.827Z,11.80
2022-11-14T11:40:36.833Z,12.00
2022-11-14T11:43:44.732Z,12.20
2022-11-14T11:46:54.325Z,12.40
2022-11-14T11:50:02.302Z,12.70
2022-11-14T11:53:17.521Z,13.00
2022-11-14T11:56:26.050Z,13.30
2022-11-14T11:59:34.552Z,13.50
2022-11-14T12:02:46.312Z,13.70
2022-11-14T12:06:04.002Z,13.60
2022-11-14T12:09:16.422Z,13.60
2022-11-14T12:12:32.059Z,13.60
2022-11-14T12:15:46.129Z,13.80
2022-11-14T12:19:09.276Z,14.00
2022-11-14T12:22:42.133Z,14.20
2022-11-14T12:25:58.372Z,14.50
2022-11-14T12:29:16.163Z,14.70
2022-11-14T12:32:29.462Z,14.80
2022-11-14T12:35:35.324Z,15.00
2022-11-14T12:38:45.418Z,15.20
2022-11-14T12:41:49.903Z,15.30
2022-11-14T12:44:53.296Z,15.50
2022-11-14T12:48:16.383Z,15.70
2022-11-14T12:51:52.116Z,15.80
2022-11-14T12:54:55.128Z,15.90
2022-11-14T12:58:08.174Z,15.90
2022-11-14T13:01:25.519Z,15.90
2022-11-14T13:04:40.230Z,16.00
2022-11-14T13:08:00.453Z,15.90
2022-11-14T13:11:58.409Z,15.90
2022-11-14T13:15:42.462Z,15.70
2022-11-14T13:19:11.941Z,15.60
2022-11-14T13:22:37.644Z,15.40
2022-11-14T13:25:40.591Z,15.40
2022-11-14T13:28:49.895Z,15.30
2022-11-14T13:31:53.032Z,15.20
2022-11-14T13:35:00.721Z,15.10
2022-11-14T13:38:24.209Z,15.10
2022-11-14T13:41:47.974Z,15.00
2022-11-14T13:45:20.591Z,15.00
2022-11-14T13:48:47.606Z,15.00
2022-11-14T13:51:53.520Z,14.90
2022-11-14T13:54:56.952Z,14.80
2022-11-14T13:58:14.729Z,14.80
2022-11-14T14:01:35.928Z,14.80
2022-11-14T14:04:51.360Z,14.80
2022-11-14T14:08:04.854Z,14.80
2022-11-14T14:11:26.953Z,14.80
2022-11-14T14:14:53.645Z,14.80
2022-11-14T14:18:06.673Z,14.80
2022-11-14T14:21:18.446Z,14.80
2022-11-14T14:24:39.378Z,14.70
2022-11-14T14:27:54.984Z,14.70
2022-11-14T14:31:11.478Z,14.60
2022-11-14T14:34:28.437Z,14.50
2022-11-14T14:37:32.448Z,14.40
2022-11-14T14:40:36.976Z,14.40
2022-11-14T14:43:43.119Z,14.30
2022-11-14T14:46:46.095Z,14.30
2022-11-14T14:49:50.374Z,14.20
2022-11-14T14:52:58.412Z,14.30
2022-11-14T14:56:03.285Z,14.20
2022-11-14T14:59:18.215Z,14.30
2022-11-14T15:02:24.388Z,14.10
2022-11-14T15:05:30.601Z,14.00
2022-11-14T15:08:38.474Z,14.00
2022-11-14T15:11:44.056Z,14.00
2022-11-14T15:14:47.600Z,13.90
2022-11-14T15:17:51.856Z,13.80
2022-11-14T15:21:10.032Z,13.80
2022-11-14T15:24:18.137Z,13.70
2022-11-14T15:27:22.233Z,13.70
2022-11-14T15:30:26.820Z,13.60
2022-11-14T15:33:31.473Z,13.60
2022-11-14T15:36:35.788Z,13.60
2022-11-14T15:39:39.015Z,13.50
2022-11-14T15:42:41.933Z,13.40
2022-11-14T15:45:44.839Z,13.30
2022-11-14T15:48:47.762Z,13.20
2022-11-14T15:51:55.211Z,13.20
2022-11-14T15:54:58.103Z,13.20
2022-11-14T15:58:26.440Z,13.10
2022-11-14T16:01:26.072Z,13.00
2022-11-14T16:04:33.303Z,12.90
2022-11-14T16:07:37.671Z,12.90
2022-11-14T16:10:43.738Z,12.80
2022-11-14T16:13:46.693Z,12.80
2022-11-14T16:16:49.654Z,12.70
2022-11-14T16:19:52.539Z,12.70
2022-11-14T16:22:56.978Z,12.60
2022-11-14T16:25:59.933Z,12.60
2022-11-14T16:29:02.848Z,12.60
2022-11-14T16:32:06.170Z,12.60
2022-11-14T16:35:15.328Z,12.60
2022-11-14T16:38:19.683Z,12.60
2022-11-14T16:41:22.559Z,12.60
2022-11-14T16:44:25.557Z,12.60
2022-11-14T16:47:28.604Z,12.60
2022-11-14T16:50:31.515Z,12.50
2022-11-14T16:53:35.948Z,12.50
2022-11-14T16:56:38.912Z,12.60
2022-11-14T16:59:41.925Z,12.60
2022-11-14T17:02:45.690Z,12.50
2022-11-14T17:05:50.084Z,12.40
2022-11-14T17:08:56.240Z,12.40
2022-11-14T17:11:59.135Z,12.40
2022-11-14T17:15:02.048Z,12.40
2022-11-14T17:18:05.836Z,12.40
2022-11-14T17:21:09.858Z,12.30
2022-11-14T17:24:14.188Z,12.40
2022-11-14T17:27:18.272Z,12.40
2022-11-14T17:30:21.261Z,12.40
2022-11-14T17:33:24.166Z,12.30
2022-11-14T17:36:29.616Z,12.30
2022-11-14T17:39:35.204Z,12.20
2022-11-14T17:42:38.100Z,12.20
2022-11-14T17:45:41.407Z,12.20
2022-11-14T17:48:44.962Z,12.20
2022-11-14T17:51:47.951Z,12.20
2022-11-14T17:54:52.553Z,12.10
2022-11-14T17:57:55.446Z,12.00
2022-11-14T18:00:59.043Z,12.10
2022-11-14T18:04:06.140Z,12.00
2022-11-14T18:07:09.506Z,12.00
2022-11-14T18:10:13.900Z,12.00
2022-11-14T18:13:16.792Z,11.80
2022-11-14T18:16:21.088Z,11.70
2022-11-14T18:19:24.019Z,11.70
2022-11-14T18:22:26.989Z,11.70
2022-11-14T18:25:31.736Z,11.70
2022-11-14T18:28:34.637Z,11.80
2022-11-14T18:31:37.558Z,11.60
2022-11-14T18:34:40.778Z,11.50
2022-11-14T18:37:43.689Z,11.30
2022-11-14T18:40:51.699Z,11.30
2022-11-14T18:43:58.079Z,11.30
2022-11-14T18:47:00.987Z,11.40
2022-11-14T18:50:05.037Z,11.30
2022-11-14T18:53:08.325Z,11.20
2022-11-14T18:56:14.584Z,11.30
2022-11-14T18:59:17.856Z,11.30
2022-11-14T19:02:21.407Z,11.00
2022-11-14T19:05:24.700Z,10.90
2022-11-14T19:08:27.906Z,10.90
2022-11-14T19:11:50.225Z,10.90
2022-11-14T19:14:54.072Z,11.00
2022-11-14T19:17:57.286Z,11.00
2022-11-14T19:21:01.935Z,11.00
2022-11-14T19:24:05.369Z,11.00
2022-11-14T19:27:09.737Z,10.90
2022-11-14T19:30:13.204Z,10.90
2022-11-14T19:33:16.433Z,10.80
2022-11-14T19:36:52.688Z,10.80
2022-11-14T19:39:45.105Z,10.80
2022-11-14T19:42:49.415Z,10.70
2022-11-14T19:45:53.107Z,10.70
2022-11-14T19:49:00.208Z,10.70
2022-11-14T19:52:03.113Z,10.70
2022-11-14T19:55:06.395Z,10.60
2022-11-14T19:58:10.661Z,10.60
2022-11-14T20:01:15.367Z,10.60
2022-11-14T20:04:18.362Z,10.50
2022-11-14T20:07:21.562Z,10.50
2022-11-14T20:10:24.512Z,10.40
2022-11-14T20:13:31.770Z,10.30
2022-11-14T20:16:36.861Z,10.20
2022-11-14T20:19:39.824Z,10.20
2022-11-14T20:22:42.758Z,10.10
2022-11-14T20:25:51.382Z,10.20
2022-11-14T20:28:55.992Z,10.10
2022-11-14T20:31:58.907Z,10.10
2022-11-14T20:35:02.109Z,10.10
2022-11-14T20:38:05.531Z,10.10
2022-11-14T20:41:08.650Z,10.00
2022-11-14T20:44:12.948Z,10.00
2022-11-14T20:47:17.341Z,10.00
2022-11-14T20:50:20.481Z,10.00
2022-11-14T20:53:23.383Z,10.00
2022-11-14T20:56:26.292Z,10.00
2022-11-14T20:59:30.560Z,10.00
2022-11-14T21:02:34.015Z,9.90
2022-11-14T21:05:39.673Z,9.80
2022-11-14T21:08:43.323Z,9.70
2022-11-14T21:11:46.220Z,9.70
2022-11-14T21:14:50.477Z,9.70
2022-11-14T21:17:53.362Z,9.70
2022-11-14T21:21:01.116Z,9.70
2022-11-14T21:24:04.298Z,9.60
2022-11-14T21:27:11.325Z,9.60
2022-11-14T21:30:16.004Z,9.50
2022-11-14T21:33:18.929Z,9.50
2022-11-14T21:36:43.705Z,9.50
2022-11-14T21:39:45.092Z,9.40
2022-11-14T21:42:48.055Z,9.40
2022-11-14T21:46:00.303Z,9.40
2022-11-14T21:49:03.423Z,9.40
2022-11-14T21:52:06.407Z,9.40
2022-11-14T21:55:09.498Z,9.30
2022-11-14T21:58:13.072Z,9.30
2022-11-14T22:01:40.396Z,9.20
2022-11-14T22:04:42.540Z,9.10
2022-11-14T22:07:45.605Z,9.10
2022-11-14T22:10:48.541Z,9.20
2022-11-14T22:13:51.681Z,9.20
2022-11-14T22:16:56.007Z,9.20
2022-11-14T22:19:59.172Z,9.20
2022-11-14T22:23:02.112Z,9.20
2022-11-14T22:26:05.535Z,9.20
2022-11-14T22:29:08.932Z,9.20
2022-11-14T22:32:13.157Z,9.10
2022-11-14T22:35:16.599Z,9.10
2022-11-14T22:38:19.530Z,9.10
2022-11-14T22:41:27.755Z,9.10
2022-11-14T22:44:34.625Z,9.10
2022-11-14T22:47:39.393Z,9.00
2022-11-14T22:50:42.283Z,9.00
2022-11-14T22:53:47.374Z,9.00
2022-11-14T22:56:50.264Z,9.00
2022-11-14T22:59:53.165Z,9.00
2022-11-14T23:02:57.396Z,9.00
2022-11-14T23:06:00.319Z,8.90
2022-11-14T23:09:04.926Z,8.90
2022-11-14T23:12:07.960Z,8.80
2022-11-14T23:15:11.393Z,8.80
2022-11-14T23:18:15.936Z,8.90
2022-11-14T23:21:20.272Z,8.80
2022-11-14T23:24:23.190Z,8.80
2022-11-14T23:27:26.071Z,8.80
2022-11-14T23:30:29.002Z,8.80
2022-11-14T23:33:33.741Z,8.70
2022-11-14T23:36:36.965Z,8.60
2022-11-14T23:39:39.871Z,8.70
2022-11-14T23:42:42.771Z,8.60
2022-11-14T23:45:45.676Z,8.70
2022-11-14T23:48:50.766Z,8.60
2022-11-14T23:51:53.696Z,8.60
2022-11-14T23:54:56.572Z,8.60
2022-11-14T23:57:59.454Z,8.50
